createdAt,value
2022-09-27T00:01:02.171Z,67.14
2022-09-27T00:03:34.153Z,67.28
2022-09-27T00:06:14.363Z,67.52
2022-09-27T00:08:45.981Z,67.20
2022-09-27T00:11:31.986Z,67.72
2022-09-27T00:14:06.322Z,67.01
2022-09-27T00:16:42.212Z,67.18
2022-09-27T00:19:19.386Z,67.28
2022-09-27T00:21:51.394Z,67.59
2022-09-27T00:24:23.133Z,68.06
2022-09-27T00:26:56.033Z,67.96
2022-09-27T00:29:27.667Z,67.93
2022-09-27T00:32:24.652Z,67.86
2022-09-27T00:34:56.361Z,67.89
2022-09-27T00:37:29.196Z,67.96
2022-09-27T00:40:00.990Z,67.93
2022-09-27T00:42:37.386Z,68.16
2022-09-27T00:45:15.044Z,68.40
2022-09-27T00:48:00.576Z,68.22
2022-09-27T00:50:43.623Z,68.23
2022-09-27T00:53:26.900Z,68.41
2022-09-27T00:56:03.616Z,68.33
2022-09-27T00:58:39.937Z,68.02
2022-09-27T01:01:14.743Z,67.92
2022-09-27T01:04:08.021Z,68.08
2022-09-27T01:06:42.530Z,68.12
2022-09-27T01:09:16.129Z,68.35
2022-09-27T01:12:01.256Z,69.01
2022-09-27T01:14:58.537Z,68.40
2022-09-27T01:17:51.429Z,68.36
2022-09-27T01:20:35.585Z,68.82
2022-09-27T01:23:34.159Z,68.35
2022-09-27T01:26:24.918Z,68.20
2022-09-27T01:29:05.190Z,68.34
2022-09-27T01:32:03.337Z,68.68
2022-09-27T01:34:48.404Z,68.55
2022-09-27T01:37:29.593Z,68.78
2022-09-27T01:40:28.478Z,68.62
2022-09-27T01:43:49.692Z,68.68
2022-09-27T01:46:35.450Z,68.48
2022-09-27T01:49:46.029Z,68.37
2022-09-27T01:52:27.172Z,68.89
2022-09-27T01:55:06.556Z,68.21
2022-09-27T01:58:03.556Z,68.57
2022-09-27T02:00:36.933Z,68.52
2022-09-27T02:03:20.729Z,68.69
2022-09-27T02:06:23.310Z,68.82
2022-09-27T02:09:25.044Z,68.60
2022-09-27T02:12:18.874Z,68.42
2022-09-27T02:14:58.612Z,68.57
2022-09-27T02:17:56.514Z,68.61
2022-09-27T02:20:46.230Z,68.30
2022-09-27T02:23:39.545Z,68.43
2022-09-27T02:26:31.483Z,68.79
2022-09-27T02:29:11.363Z,68.33
2022-09-27T02:31:52.659Z,68.33
2022-09-27T02:34:29.458Z,67.95
2022-09-27T02:37:01.834Z,67.96
2022-09-27T02:39:37.893Z,68.27
2022-09-27T02:42:12.655Z,67.81
2022-09-27T02:44:46.905Z,68.25
2022-09-27T02:47:24.463Z,67.84
2022-09-27T02:50:17.204Z,67.93
2022-09-27T02:53:50.332Z,68.11
2022-09-27T02:57:26.532Z,67.78
2022-09-27T03:00:28.583Z,68.30
2022-09-27T03:03:20.939Z,67.95
2022-09-27T03:06:09.205Z,67.79
2022-09-27T03:08:41.957Z,67.63
2022-09-27T03:11:13.839Z,67.43
2022-09-27T03:14:07.865Z,67.75
2022-09-27T03:16:43.377Z,67.81
2022-09-27T03:19:33.529Z,66.60
2022-09-27T03:22:26.504Z,66.84
2022-09-27T03:24:59.537Z,66.87
2022-09-27T03:27:31.222Z,66.44
2022-09-27T03:30:06.412Z,66.79
2022-09-27T03:32:44.114Z,66.49
2022-09-27T03:35:37.305Z,66.45
2022-09-27T03:38:12.708Z,66.74
2022-09-27T03:40:48.087Z,66.38
2022-09-27T03:43:20.065Z,66.67
2022-09-27T03:45:52.353Z,66.15
2022-09-27T03:48:27.986Z,66.23
2022-09-27T03:51:00.047Z,66.21
2022-09-27T03:53:31.793Z,66.48
2022-09-27T03:56:04.253Z,66.03
2022-09-27T03:58:36.050Z,66.43
2022-09-27T04:01:11.879Z,66.46
2022-09-27T04:03:47.400Z,66.57
2022-09-27T04:06:52.973Z,66.27
2022-09-27T04:09:25.345Z,66.52
2022-09-27T04:12:05.089Z,66.38
2022-09-27T04:14:37.955Z,66.84
2022-09-27T04:17:28.493Z,67.04
2022-09-27T04:20:19.834Z,67.20
2022-09-27T04:22:51.427Z,66.91
2022-09-27T04:25:23.264Z,67.57
2022-09-27T04:27:55.625Z,67.64
2022-09-27T04:30:29.127Z,67.68
2022-09-27T04:33:00.750Z,68.26
2022-09-27T04:36:12.827Z,68.35
2022-09-27T04:39:01.387Z,68.61
2022-09-27T04:41:35.674Z,69.08
2022-09-27T04:44:07.342Z,69.14
2022-09-27T04:46:39.220Z,68.98
2022-09-27T04:49:11.013Z,69.29
2022-09-27T04:51:42.750Z,69.77
2022-09-27T04:54:16.417Z,69.91
2022-09-27T04:57:12.361Z,69.70
2022-09-27T04:59:45.288Z,70.34
2022-09-27T05:02:18.880Z,70.35
2022-09-27T05:05:22.795Z,70.43
2022-09-27T05:07:55.408Z,71.02
2022-09-27T05:10:43.235Z,70.98
2022-09-27T05:13:19.161Z,70.85
2022-09-27T05:15:53.858Z,70.71
2022-09-27T05:18:45.947Z,71.48
2022-09-27T05:21:35.815Z,70.98
2022-09-27T05:24:07.490Z,70.78
2022-09-27T05:26:39.168Z,70.84
2022-09-27T05:29:11.559Z,70.63
2022-09-27T05:31:47.721Z,70.34
2022-09-27T05:34:22.531Z,70.73
2022-09-27T05:37:02.492Z,71.12
2022-09-27T05:39:37.104Z,71.00
2022-09-27T05:42:10.315Z,70.93
2022-09-27T05:44:42.461Z,71.10
2022-09-27T05:47:16.051Z,70.57
2022-09-27T05:49:48.788Z,70.67
2022-09-27T05:52:21.614Z,71.09
2022-09-27T05:54:55.901Z,71.19
2022-09-27T05:57:27.810Z,70.76
2022-09-27T06:00:05.240Z,70.92
2022-09-27T06:03:04.349Z,71.14
2022-09-27T06:06:05.856Z,70.76
2022-09-27T06:08:44.084Z,70.44
2022-09-27T06:11:19.470Z,70.74
2022-09-27T06:13:52.968Z,71.13
2022-09-27T06:16:28.496Z,69.98
2022-09-27T06:19:02.275Z,70.02
2022-09-27T06:21:37.575Z,70.39
2022-09-27T06:24:12.543Z,70.13
2022-09-27T06:26:45.438Z,70.26
2022-09-27T06:29:35.650Z,69.93
2022-09-27T06:32:13.367Z,69.14
2022-09-27T06:35:14.318Z,68.88
2022-09-27T06:37:47.457Z,69.40
2022-09-27T06:40:20.359Z,69.52
2022-09-27T06:43:06.165Z,69.17
2022-09-27T06:46:05.354Z,69.02
2022-09-27T06:48:56.595Z,69.28
2022-09-27T06:51:31.388Z,69.25
2022-09-27T06:54:03.055Z,68.91
2022-09-27T06:56:40.905Z,67.97
2022-09-27T06:59:31.496Z,68.47
2022-09-27T07:02:25.696Z,68.38
2022-09-27T07:05:21.027Z,68.23
2022-09-27T07:08:09.825Z,67.26
2022-09-27T07:10:45.069Z,67.31
2022-09-27T07:13:17.228Z,66.95
2022-09-27T07:15:49.567Z,67.20
2022-09-27T07:18:21.377Z,66.78
2022-09-27T07:20:56.872Z,66.37
2022-09-27T07:23:32.157Z,66.50
2022-09-27T07:26:06.921Z,66.15
2022-09-27T07:28:41.553Z,65.88
2022-09-27T07:31:14.217Z,65.39
2022-09-27T07:33:46.234Z,65.10
2022-09-27T07:36:21.920Z,63.55
2022-09-27T07:38:53.903Z,63.35
2022-09-27T07:41:27.001Z,63.12
2022-09-27T07:43:59.952Z,63.33
2022-09-27T07:46:35.908Z,63.52
2022-09-27T07:49:25.065Z,62.74
2022-09-27T07:52:23.421Z,62.70
2022-09-27T07:55:24.443Z,61.93
2022-09-27T07:58:16.640Z,61.57
2022-09-27T08:00:48.706Z,58.93
2022-09-27T08:03:20.430Z,59.15
2022-09-27T08:05:57.861Z,58.45
2022-09-27T08:08:30.194Z,58.54
2022-09-27T08:11:10.279Z,58.18
2022-09-27T08:13:43.431Z,57.52
2022-09-27T08:16:18.209Z,57.80
2022-09-27T08:19:11.646Z,57.94
2022-09-27T08:22:01.703Z,57.69
2022-09-27T08:24:39.877Z,57.78
2022-09-27T08:27:19.964Z,57.00
2022-09-27T08:29:54.164Z,56.89
2022-09-27T08:32:33.143Z,56.85
2022-09-27T08:35:09.437Z,55.72
2022-09-27T08:37:41.356Z,55.65
2022-09-27T08:40:17.768Z,56.18
2022-09-27T08:43:16.721Z,56.76
2022-09-27T08:46:10.230Z,58.13
2022-09-27T08:48:48.481Z,59.12
2022-09-27T08:51:26.088Z,59.63
2022-09-27T08:54:30.103Z,60.80
2022-09-27T08:57:26.574Z,60.83
2022-09-27T09:00:07.208Z,61.41
2022-09-27T09:02:41.672Z,61.63
2022-09-27T09:05:21.685Z,60.67
2022-09-27T09:08:19.127Z,60.92
2022-09-27T09:11:18.668Z,61.01
2022-09-27T09:14:13.700Z,61.27
2022-09-27T09:17:22.524Z,60.83
2022-09-27T09:20:47.771Z,60.66
2022-09-27T09:23:37.548Z,60.68
2022-09-27T09:26:17.818Z,60.85
2022-09-27T09:29:17.066Z,61.03
2022-09-27T09:32:24.285Z,61.33
2022-09-27T09:35:25.056Z,60.96
2022-09-27T09:38:08.616Z,60.89
2022-09-27T09:40:55.764Z,60.92
2022-09-27T09:44:21.484Z,60.03
2022-09-27T09:46:59.858Z,60.37
2022-09-27T09:49:41.993Z,60.30
2022-09-27T09:52:19.552Z,59.55
2022-09-27T09:55:00.785Z,60.24
2022-09-27T09:58:03.495Z,60.35
2022-09-27T10:00:45.524Z,59.62
2022-09-27T10:03:17.574Z,58.08
2022-09-27T10:05:50.178Z,56.53
2022-09-27T10:08:24.230Z,56.21
2022-09-27T10:11:21.341Z,56.12
2022-09-27T10:14:01.670Z,56.02
2022-09-27T10:16:33.475Z,55.50
2022-09-27T10:19:10.093Z,55.10
2022-09-27T10:21:47.724Z,55.40
2022-09-27T10:24:20.711Z,56.07
2022-09-27T10:27:21.912Z,56.54
2022-09-27T10:30:02.111Z,55.78
2022-09-27T10:32:37.140Z,55.30
2022-09-27T10:35:28.966Z,55.29
2022-09-27T10:38:18.940Z,55.19
2022-09-27T10:40:56.081Z,55.53
2022-09-27T10:43:32.630Z,55.11
2022-09-27T10:46:34.505Z,55.02
2022-09-27T10:49:35.614Z,55.62
2022-09-27T10:52:18.694Z,54.87
2022-09-27T10:54:56.690Z,54.48
2022-09-27T10:57:31.229Z,54.50
2022-09-27T11:00:23.162Z,53.30
2022-09-27T11:02:59.914Z,52.54
2022-09-27T11:05:39.576Z,52.58
2022-09-27T11:08:24.190Z,52.37
2022-09-27T11:11:25.399Z,52.98
2022-09-27T11:14:12.036Z,52.50
2022-09-27T11:17:05.076Z,51.68
2022-09-27T11:20:12.541Z,51.53
2022-09-27T11:23:45.671Z,52.08
2022-09-27T11:26:44.796Z,52.17
2022-09-27T11:29:41.890Z,54.78
2022-09-27T11:32:41.903Z,56.28
2022-09-27T11:35:38.986Z,56.26
2022-09-27T11:38:52.283Z,53.56
2022-09-27T11:41:37.588Z,53.64
2022-09-27T11:44:48.766Z,54.78
2022-09-27T11:47:49.399Z,53.36
2022-09-27T11:50:58.625Z,53.55
2022-09-27T11:54:03.343Z,52.87
2022-09-27T11:57:06.039Z,53.54
2022-09-27T12:00:05.615Z,52.74
2022-09-27T12:03:28.474Z,52.37
2022-09-27T12:06:21.462Z,52.65
2022-09-27T12:08:55.898Z,52.70
2022-09-27T12:11:37.419Z,52.94
2022-09-27T12:14:22.490Z,51.04
2022-09-27T12:16:58.460Z,51.65
2022-09-27T12:19:39.981Z,51.95
2022-09-27T12:22:53.962Z,51.80
2022-09-27T12:25:23.683Z,51.84
2022-09-27T12:28:34.724Z,51.26
2022-09-27T12:31:30.485Z,50.17
2022-09-27T12:34:18.886Z,50.65
2022-09-27T12:37:33.044Z,51.31
2022-09-27T12:40:30.175Z,51.34
2022-09-27T12:43:27.842Z,51.03
2022-09-27T12:46:20.673Z,50.71
2022-09-27T12:49:25.767Z,50.30
2022-09-27T12:52:05.273Z,50.79
2022-09-27T12:54:37.500Z,51.21
2022-09-27T12:57:34.486Z,50.68
2022-09-27T13:00:21.104Z,51.60
2022-09-27T13:03:34.679Z,51.90
2022-09-27T13:06:27.482Z,51.31
2022-09-27T13:09:10.521Z,50.57
2022-09-27T13:11:55.253Z,50.38
2022-09-27T13:14:32.276Z,50.23
2022-09-27T13:17:04.073Z,50.84
2022-09-27T13:19:45.564Z,51.25
2022-09-27T13:22:40.664Z,51.38
2022-09-27T13:25:56.457Z,50.77
2022-09-27T13:28:58.432Z,51.53
2022-09-27T13:31:57.775Z,51.15
2022-09-27T13:34:48.827Z,49.46
2022-09-27T13:37:55.438Z,49.96
2022-09-27T13:40:40.786Z,49.19
2022-09-27T13:43:47.673Z,48.15
2022-09-27T13:46:37.041Z,46.97
2022-09-27T13:49:19.179Z,46.28
2022-09-27T13:52:34.073Z,47.01
2022-09-27T13:55:41.545Z,51.10
2022-09-27T13:58:35.531Z,52.25
2022-09-27T14:01:42.971Z,49.16
2022-09-27T14:04:27.481Z,46.82
2022-09-27T14:07:02.142Z,47.25
2022-09-27T14:09:48.166Z,48.14
2022-09-27T14:12:32.389Z,45.11
2022-09-27T14:15:08.776Z,45.10
2022-09-27T14:17:46.836Z,45.26
2022-09-27T14:20:41.681Z,47.16
2022-09-27T14:23:27.246Z,45.63
2022-09-27T14:25:59.071Z,46.36
2022-09-27T14:28:40.282Z,46.56
2022-09-27T14:31:24.571Z,46.29
2022-09-27T14:34:15.345Z,46.07
2022-09-27T14:37:10.570Z,46.35
2022-09-27T14:40:21.990Z,47.11
2022-09-27T14:42:59.868Z,47.71
2022-09-27T14:45:37.513Z,48.49
2022-09-27T14:48:22.482Z,48.42
2022-09-27T14:51:09.498Z,48.99
2022-09-27T14:53:47.639Z,49.46
2022-09-27T14:56:22.810Z,49.72
2022-09-27T14:59:02.556Z,50.07
2022-09-27T15:01:36.177Z,50.20
2022-09-27T15:04:14.083Z,51.12
2022-09-27T15:06:47.438Z,51.73
2022-09-27T15:09:19.586Z,52.39
2022-09-27T15:12:00.810Z,52.82
2022-09-27T15:14:33.814Z,53.67
2022-09-27T15:17:16.617Z,53.68
2022-09-27T15:20:00.226Z,54.22
2022-09-27T15:22:33.807Z,55.40
2022-09-27T15:25:34.852Z,56.01
2022-09-27T15:28:19.094Z,56.36
2022-09-27T15:30:57.653Z,57.25
2022-09-27T15:33:34.690Z,57.36
2022-09-27T15:36:11.757Z,56.07
2022-09-27T15:38:48.274Z,56.26
2022-09-27T15:41:21.350Z,55.68
2022-09-27T15:43:53.095Z,55.17
2022-09-27T15:46:43.257Z,55.40
2022-09-27T15:49:18.063Z,53.41
2022-09-27T15:51:54.717Z,53.83
2022-09-27T15:54:37.131Z,53.98
2022-09-27T15:57:12.368Z,53.92
2022-09-27T15:59:43.997Z,53.75
2022-09-27T16:02:17.577Z,53.57
2022-09-27T16:04:49.197Z,54.02
2022-09-27T16:07:21.088Z,54.25
2022-09-27T16:09:55.451Z,54.35
2022-09-27T16:12:30.232Z,54.63
2022-09-27T16:15:01.877Z,55.26
2022-09-27T16:17:33.540Z,55.53
2022-09-27T16:20:06.159Z,55.91
2022-09-27T16:22:37.827Z,56.30
2022-09-27T16:25:09.664Z,56.18
2022-09-27T16:27:41.657Z,56.30
2022-09-27T16:30:14.089Z,56.80
2022-09-27T16:32:47.617Z,56.89
2022-09-27T16:35:20.880Z,57.16
2022-09-27T16:37:52.688Z,57.72
2022-09-27T16:40:26.673Z,57.63
2022-09-27T16:42:58.406Z,57.81
2022-09-27T16:45:33.325Z,57.67
2022-09-27T16:48:07.749Z,58.15
2022-09-27T16:50:57.848Z,57.92
2022-09-27T16:53:30.222Z,58.29
2022-09-27T16:56:02.112Z,58.34
2022-09-27T16:58:33.720Z,58.64
2022-09-27T17:01:05.962Z,58.32
2022-09-27T17:03:38.064Z,58.60
2022-09-27T17:06:12.645Z,59.10
2022-09-27T17:08:45.131Z,59.33
2022-09-27T17:11:18.829Z,59.46
2022-09-27T17:13:54.767Z,59.77
2022-09-27T17:16:28.208Z,60.04
2022-09-27T17:18:59.940Z,60.26
2022-09-27T17:21:38.170Z,60.60
2022-09-27T17:24:10.098Z,60.51
2022-09-27T17:26:42.181Z,60.47
2022-09-27T17:29:14.488Z,60.84
2022-09-27T17:31:46.376Z,61.34
2022-09-27T17:34:18.307Z,61.45
2022-09-27T17:36:51.662Z,61.39
2022-09-27T17:39:23.302Z,61.04
2022-09-27T17:41:54.950Z,61.59
2022-09-27T17:44:27.196Z,61.65
2022-09-27T17:47:17.521Z,61.65
2022-09-27T17:50:21.079Z,61.88
2022-09-27T17:52:53.785Z,61.89
2022-09-27T17:55:27.050Z,62.32
2022-09-27T17:57:58.646Z,62.21
2022-09-27T18:00:30.477Z,62.51
2022-09-27T18:03:02.179Z,62.34
2022-09-27T18:05:34.013Z,62.04
2022-09-27T18:08:05.713Z,62.25
2022-09-27T18:10:40.224Z,62.45
2022-09-27T18:13:12.832Z,62.72
2022-09-27T18:15:45.639Z,62.77
2022-09-27T18:18:17.320Z,62.75
2022-09-27T18:20:49.002Z,63.44
2022-09-27T18:23:20.665Z,63.14
2022-09-27T18:25:55.859Z,63.46
2022-09-27T18:28:31.781Z,63.75
2022-09-27T18:31:15.787Z,63.62
2022-09-27T18:33:49.290Z,63.91
2022-09-27T18:36:26.069Z,63.60
2022-09-27T18:39:00.672Z,63.37
2022-09-27T18:41:34.107Z,63.46
2022-09-27T18:44:06.744Z,63.61
2022-09-27T18:46:38.598Z,63.54
2022-09-27T18:49:12.681Z,63.87
2022-09-27T18:51:46.294Z,63.26
2022-09-27T18:54:22.580Z,63.09
2022-09-27T18:56:58.876Z,63.29
2022-09-27T18:59:30.569Z,62.83
2022-09-27T19:02:02.294Z,63.04
2022-09-27T19:04:33.956Z,62.78
2022-09-27T19:07:05.604Z,63.10
2022-09-27T19:09:37.268Z,62.83
2022-09-27T19:12:08.960Z,62.67
2022-09-27T19:14:40.587Z,62.56
2022-09-27T19:17:14.254Z,63.11
2022-09-27T19:19:45.893Z,63.07
2022-09-27T19:22:19.897Z,63.24
2022-09-27T19:24:54.606Z,63.27
2022-09-27T19:27:26.234Z,63.72
2022-09-27T19:29:59.246Z,63.72
2022-09-27T19:32:33.758Z,63.80
2022-09-27T19:35:06.143Z,63.77
2022-09-27T19:37:37.827Z,63.86
2022-09-27T19:40:09.438Z,64.12
2022-09-27T19:42:41.218Z,63.93
2022-09-27T19:45:12.802Z,64.05
2022-09-27T19:47:44.621Z,64.04
2022-09-27T19:50:16.700Z,63.67
2022-09-27T19:52:49.593Z,63.90
2022-09-27T19:55:21.200Z,63.83
2022-09-27T19:57:55.143Z,63.51
2022-09-27T20:00:26.788Z,63.77
2022-09-27T20:02:58.753Z,64.64
2022-09-27T20:05:30.382Z,63.77
2022-09-27T20:08:04.942Z,63.53
2022-09-27T20:10:36.533Z,63.52
2022-09-27T20:13:08.149Z,63.30
2022-09-27T20:15:39.764Z,63.47
2022-09-27T20:18:11.912Z,63.67
2022-09-27T20:20:43.688Z,63.80
2022-09-27T20:23:19.898Z,63.64
2022-09-27T20:25:51.542Z,63.96
2022-09-27T20:28:23.160Z,64.20
2022-09-27T20:30:59.452Z,64.14
2022-09-27T20:33:49.633Z,64.23
2022-09-27T20:36:27.746Z,64.27
2022-09-27T20:39:05.273Z,64.20
2022-09-27T20:41:40.777Z,63.85
2022-09-27T20:44:14.770Z,64.37
2022-09-27T20:46:47.493Z,63.64
2022-09-27T20:49:19.560Z,63.53
2022-09-27T20:51:51.438Z,63.62
2022-09-27T20:54:23.167Z,63.70
2022-09-27T20:56:55.143Z,63.49
2022-09-27T20:59:26.811Z,63.27
2022-09-27T21:01:58.536Z,63.49
2022-09-27T21:04:31.657Z,63.19
2022-09-27T21:07:03.894Z,63.32
2022-09-27T21:09:37.447Z,62.95
2022-09-27T21:12:09.013Z,63.17
2022-09-27T21:14:40.677Z,63.33
2022-09-27T21:17:12.605Z,63.23
2022-09-27T21:19:44.261Z,63.38
2022-09-27T21:22:19.079Z,63.57
2022-09-27T21:24:52.114Z,63.70
2022-09-27T21:27:23.685Z,63.99
2022-09-27T21:29:55.335Z,64.04
2022-09-27T21:32:28.657Z,63.90
2022-09-27T21:35:00.378Z,64.49
2022-09-27T21:37:31.933Z,64.27
2022-09-27T21:40:05.256Z,64.98
2022-09-27T21:42:36.829Z,65.23
2022-09-27T21:45:09.056Z,65.40
2022-09-27T21:47:41.717Z,65.40
2022-09-27T21:50:15.694Z,65.21
2022-09-27T21:52:47.370Z,65.29
2022-09-27T21:55:18.978Z,65.37
2022-09-27T21:57:50.756Z,65.52
2022-09-27T22:00:22.659Z,65.38
2022-09-27T22:02:58.041Z,65.50
2022-09-27T22:05:29.662Z,65.37
2022-09-27T22:08:01.378Z,65.39
2022-09-27T22:10:33.021Z,65.47
2022-09-27T22:13:04.738Z,65.62
2022-09-27T22:15:37.410Z,65.69
2022-09-27T22:18:08.973Z,65.88
2022-09-27T22:20:40.569Z,66.03
2022-09-27T22:23:12.749Z,66.22
2022-09-27T22:25:44.421Z,66.12
2022-09-27T22:28:16.006Z,66.22
2022-09-27T22:30:47.623Z,66.04
2022-09-27T22:33:19.473Z,65.95
2022-09-27T22:35:51.135Z,66.21
2022-09-27T22:38:22.766Z,66.53
2022-09-27T22:40:59.027Z,66.56
2022-09-27T22:43:31.678Z,66.48
2022-09-27T22:46:03.523Z,66.67
2022-09-27T22:48:36.523Z,66.81
2022-09-27T22:51:09.175Z,67.08
2022-09-27T22:53:41.090Z,67.39
2022-09-27T22:56:15.327Z,67.28
2022-09-27T22:58:48.187Z,67.82
2022-09-27T23:01:27.482Z,67.66
2022-09-27T23:03:59.270Z,67.48
2022-09-27T23:06:32.030Z,67.61
2022-09-27T23:09:03.678Z,67.50
2022-09-27T23:11:35.480Z,67.58
2022-09-27T23:14:08.388Z,67.54
2022-09-27T23:16:40.021Z,67.51
2022-09-27T23:19:11.613Z,67.43
2022-09-27T23:21:43.265Z,67.50
2022-09-27T23:24:14.844Z,67.18
2022-09-27T23:27:06.589Z,67.57
2022-09-27T23:29:38.194Z,67.44
2022-09-27T23:32:09.857Z,67.47
2022-09-27T23:34:44.164Z,67.53
2022-09-27T23:37:15.778Z,67.86
2022-09-27T23:39:47.702Z,67.85
2022-09-27T23:42:19.602Z,67.68
2022-09-27T23:44:52.658Z,67.45
2022-09-27T23:47:26.290Z,67.29
2022-09-27T23:49:58.346Z,67.16
2022-09-27T23:52:30.021Z,67.30
2022-09-27T23:55:01.678Z,66.85
2022-09-27T23:57:33.259Z,66.43
